createdAt,value
2022-10-06T00:02:13.072Z,101514.25
2022-10-06T00:04:39.570Z,101517.78
2022-10-06T00:07:06.066Z,101529.88
2022-10-06T00:09:32.669Z,101532.47
2022-10-06T00:11:59.115Z,101532.38
2022-10-06T00:14:25.532Z,101531.53
2022-10-06T00:16:52.008Z,101531.47
2022-10-06T00:19:18.446Z,101533.22
2022-10-06T00:21:45.058Z,101531.50
2022-10-06T00:24:11.918Z,101537.56
2022-10-06T00:26:38.541Z,101534.97
2022-10-06T00:29:04.943Z,101542.81
2022-10-06T00:31:31.443Z,101543.75
2022-10-06T00:33:57.932Z,101545.63
2022-10-06T00:36:24.383Z,101549.06
2022-10-06T00:38:50.849Z,101550.81
2022-10-06T00:41:17.879Z,101556.16
2022-10-06T00:43:52.102Z,101566.59
2022-10-06T00:46:34.488Z,101566.63
2022-10-06T00:49:18.601Z,101568.34
2022-10-06T00:51:54.832Z,101570.13
2022-10-06T00:54:21.844Z,101574.59
2022-10-06T00:56:48.379Z,101574.59
2022-10-06T00:59:17.757Z,101581.59
2022-10-06T01:02:02.166Z,101586.00
2022-10-06T01:04:33.556Z,101579.88
2022-10-06T01:07:01.071Z,101592.97
2022-10-06T01:09:30.051Z,101591.25
2022-10-06T01:11:59.756Z,101598.25
2022-10-06T01:14:26.870Z,101593.16
2022-10-06T01:16:58.309Z,101602.78
2022-10-06T01:19:37.077Z,101603.63
2022-10-06T01:22:06.672Z,101615.06
2022-10-06T01:24:33.298Z,101621.25
2022-10-06T01:27:01.303Z,101618.69
2022-10-06T01:29:28.016Z,101628.44
2022-10-06T01:31:54.814Z,101622.28
2022-10-06T01:34:21.202Z,101624.81
2022-10-06T01:36:47.596Z,101624.78
2022-10-06T01:39:14.012Z,101644.97
2022-10-06T01:41:40.508Z,101645.06
2022-10-06T01:44:06.931Z,101643.38
2022-10-06T01:46:33.422Z,101645.09
2022-10-06T01:48:59.997Z,101640.78
2022-10-06T01:51:26.473Z,101647.03
2022-10-06T01:53:52.856Z,101643.50
2022-10-06T01:56:21.016Z,101643.50
2022-10-06T01:58:48.290Z,101644.34
2022-10-06T02:01:15.002Z,101646.97
2022-10-06T02:03:42.032Z,101653.94
2022-10-06T02:06:09.649Z,101660.03
2022-10-06T02:08:36.128Z,101660.97
2022-10-06T02:11:09.039Z,101666.19
2022-10-06T02:13:36.830Z,101659.19
2022-10-06T02:16:06.644Z,101667.97
2022-10-06T02:18:34.048Z,101666.28
2022-10-06T02:21:01.819Z,101677.66
2022-10-06T02:23:29.883Z,101683.88
2022-10-06T02:26:05.034Z,101677.69
2022-10-06T02:28:32.819Z,101676.81
2022-10-06T02:31:09.058Z,101689.97
2022-10-06T02:33:36.944Z,101691.69
2022-10-06T02:36:05.464Z,101697.81
2022-10-06T02:38:32.663Z,101698.72
2022-10-06T02:41:00.355Z,101705.72
2022-10-06T02:43:31.728Z,101716.22
2022-10-06T02:46:05.039Z,101714.50
2022-10-06T02:48:33.206Z,101716.25
2022-10-06T02:51:02.335Z,101710.22
2022-10-06T02:53:29.407Z,101718.97
2022-10-06T02:56:25.656Z,101725.00
2022-10-06T02:58:53.238Z,101727.72
2022-10-06T03:01:22.406Z,101734.69
2022-10-06T03:03:48.903Z,101745.25
2022-10-06T03:06:24.081Z,101754.88
2022-10-06T03:08:52.134Z,101756.59
2022-10-06T03:11:19.801Z,101746.09
2022-10-06T03:13:47.239Z,101751.34
2022-10-06T03:16:20.517Z,101754.00
2022-10-06T03:18:49.323Z,101755.78
2022-10-06T03:21:19.843Z,101767.19
2022-10-06T03:23:47.997Z,101763.72
2022-10-06T03:26:17.543Z,101773.41
2022-10-06T03:28:44.825Z,101766.41
2022-10-06T03:31:14.407Z,101769.03
2022-10-06T03:33:41.037Z,101781.34
2022-10-06T03:36:11.002Z,101789.22
2022-10-06T03:38:38.078Z,101792.69
2022-10-06T03:41:16.207Z,101804.13
2022-10-06T03:43:44.049Z,101804.13
2022-10-06T03:46:12.508Z,101808.53
2022-10-06T03:48:39.351Z,101818.19
2022-10-06T03:51:17.807Z,101818.13
2022-10-06T03:53:45.921Z,101829.53
2022-10-06T03:56:15.614Z,101834.84
2022-10-06T03:58:45.315Z,101838.34
2022-10-06T04:01:52.994Z,101837.50
2022-10-06T04:04:19.586Z,101837.50
2022-10-06T04:06:45.958Z,101841.00
2022-10-06T04:09:16.195Z,101841.94
2022-10-06T04:11:44.239Z,101853.34
2022-10-06T04:14:13.652Z,101865.59
2022-10-06T04:16:43.286Z,101863.81
2022-10-06T04:19:11.697Z,101867.34
2022-10-06T04:21:40.761Z,101874.38
2022-10-06T04:24:08.182Z,101872.63
2022-10-06T04:26:46.574Z,101879.66
2022-10-06T04:29:13.756Z,101876.13
2022-10-06T04:31:42.349Z,101884.91
2022-10-06T04:34:11.874Z,101897.16
2022-10-06T04:36:40.939Z,101894.56
2022-10-06T04:39:10.170Z,101900.69
2022-10-06T04:41:39.003Z,101901.59
2022-10-06T04:44:06.816Z,101907.72
2022-10-06T04:46:43.744Z,101904.22
2022-10-06T04:49:17.926Z,101915.59
2022-10-06T04:51:45.347Z,101917.34
2022-10-06T04:54:11.815Z,101916.47
2022-10-06T04:56:38.308Z,101913.00
2022-10-06T04:59:04.782Z,101920.00
2022-10-06T05:01:33.804Z,101928.72
2022-10-06T05:04:01.970Z,101928.72
2022-10-06T05:06:40.898Z,101940.13
2022-10-06T05:09:10.289Z,101944.50
2022-10-06T05:11:37.354Z,101947.16
2022-10-06T05:14:03.904Z,101955.88
2022-10-06T05:16:31.316Z,101954.13
2022-10-06T05:18:58.180Z,101962.88
2022-10-06T05:21:30.217Z,101964.63
2022-10-06T05:23:57.047Z,101969.88
2022-10-06T05:26:26.650Z,101970.78
2022-10-06T05:28:53.244Z,101976.03
2022-10-06T05:31:28.043Z,101978.66
2022-10-06T05:33:55.688Z,101979.53
2022-10-06T05:36:25.084Z,101983.91
2022-10-06T05:38:51.594Z,101994.41
2022-10-06T05:41:20.989Z,101997.00
2022-10-06T05:43:48.355Z,102007.50
2022-10-06T05:46:20.822Z,102009.22
2022-10-06T05:48:49.054Z,102011.00
2022-10-06T05:51:17.044Z,102012.75
2022-10-06T05:53:43.735Z,102013.59
2022-10-06T05:56:20.005Z,102025.84
2022-10-06T05:58:49.179Z,102032.84
2022-10-06T06:01:15.582Z,102034.56
2022-10-06T06:03:43.668Z,102038.97
2022-10-06T06:06:21.085Z,102035.44
2022-10-06T06:08:51.678Z,102050.31
2022-10-06T06:11:18.139Z,102044.19
2022-10-06T06:13:44.617Z,102053.81
2022-10-06T06:16:15.195Z,102052.94
2022-10-06T06:18:42.123Z,102049.44
2022-10-06T06:21:09.857Z,102054.69
2022-10-06T06:23:39.002Z,102064.28
2022-10-06T06:26:08.403Z,102062.53
2022-10-06T06:28:36.998Z,102072.16
2022-10-06T06:31:10.120Z,102075.66
2022-10-06T06:33:38.222Z,102076.50
2022-10-06T06:36:26.070Z,102081.78
2022-10-06T06:38:54.440Z,102082.63
2022-10-06T06:41:23.652Z,102093.13
2022-10-06T06:43:50.781Z,102093.13
2022-10-06T06:46:20.198Z,102104.47
2022-10-06T06:48:47.165Z,102102.75
2022-10-06T06:51:15.061Z,102110.63
2022-10-06T06:53:41.667Z,102108.88
2022-10-06T06:56:09.330Z,102113.25
2022-10-06T06:58:36.323Z,102118.47
2022-10-06T07:01:14.091Z,102113.25
2022-10-06T07:03:57.162Z,102121.06
2022-10-06T07:06:28.074Z,102122.81
2022-10-06T07:08:56.020Z,102128.06
2022-10-06T07:11:32.707Z,102128.09
2022-10-06T07:14:04.084Z,102131.59
2022-10-06T07:16:50.249Z,102137.72
2022-10-06T07:19:37.578Z,102146.44
2022-10-06T07:22:35.357Z,102149.06
2022-10-06T07:25:07.402Z,102156.97
2022-10-06T07:27:51.019Z,102156.09
2022-10-06T07:30:21.057Z,102170.09
2022-10-06T07:32:49.817Z,102180.56
2022-10-06T07:35:17.796Z,102186.69
2022-10-06T07:37:44.314Z,102185.81
2022-10-06T07:40:11.129Z,102191.06
2022-10-06T07:42:48.700Z,102191.09
2022-10-06T07:45:35.298Z,102193.69
2022-10-06T07:48:02.605Z,102204.19
2022-10-06T07:50:29.112Z,102205.09
2022-10-06T07:52:55.798Z,102214.69
2022-10-06T07:55:22.289Z,102215.56
2022-10-06T07:57:50.950Z,102217.31
2022-10-06T08:00:20.464Z,102207.72
2022-10-06T08:02:47.213Z,102214.72
2022-10-06T08:05:13.997Z,102212.09
2022-10-06T08:07:40.948Z,102214.72
2022-10-06T08:10:07.627Z,102224.34
2022-10-06T08:12:34.276Z,102233.97
2022-10-06T08:15:06.085Z,102234.88
2022-10-06T08:17:37.723Z,102230.50
2022-10-06T08:20:06.480Z,102229.63
2022-10-06T08:22:33.496Z,102231.38
2022-10-06T08:25:07.487Z,102241.03
2022-10-06T08:27:35.337Z,102234.00
2022-10-06T08:30:03.650Z,102240.13
2022-10-06T08:32:30.299Z,102243.63
2022-10-06T08:34:57.421Z,102244.50
2022-10-06T08:37:24.563Z,102245.41
2022-10-06T08:39:51.508Z,102234.88
2022-10-06T08:42:24.566Z,102242.75
2022-10-06T08:44:58.148Z,102242.75
2022-10-06T08:47:29.025Z,102248.03
2022-10-06T08:49:57.156Z,102245.41
2022-10-06T08:52:36.098Z,102248.00
2022-10-06T08:55:24.399Z,102251.50
2022-10-06T08:58:18.181Z,102255.88
2022-10-06T09:00:44.706Z,102254.13
2022-10-06T09:03:24.076Z,102261.13
2022-10-06T09:05:53.366Z,102266.34
2022-10-06T09:08:47.249Z,102267.22
2022-10-06T09:11:32.500Z,102265.47
2022-10-06T09:14:17.170Z,102275.09
2022-10-06T09:16:50.206Z,102287.38
2022-10-06T09:19:31.324Z,102289.13
2022-10-06T09:22:02.487Z,102291.75
2022-10-06T09:24:40.513Z,102293.50
2022-10-06T09:27:23.185Z,102292.59
2022-10-06T09:29:51.035Z,102287.31
2022-10-06T09:32:19.858Z,102287.31
2022-10-06T09:34:55.315Z,102291.72
2022-10-06T09:37:22.863Z,102300.41
2022-10-06T09:39:51.246Z,102299.53
2022-10-06T09:42:20.736Z,102294.28
2022-10-06T09:44:51.244Z,102299.50
2022-10-06T09:47:41.781Z,102311.75
2022-10-06T09:50:15.952Z,102315.25
2022-10-06T09:53:03.396Z,102312.59
2022-10-06T09:55:43.613Z,102304.69
2022-10-06T09:58:21.396Z,102311.69
2022-10-06T10:01:03.772Z,102306.47
2022-10-06T10:03:51.427Z,102305.56
2022-10-06T10:06:31.279Z,102305.59
2022-10-06T10:09:15.647Z,102300.34
2022-10-06T10:12:03.035Z,102304.66
2022-10-06T10:14:36.546Z,102314.28
2022-10-06T10:17:42.756Z,102306.38
2022-10-06T10:20:57.453Z,102310.78
2022-10-06T10:23:33.388Z,102318.72
2022-10-06T10:26:14.556Z,102317.84
2022-10-06T10:28:50.869Z,102314.28
2022-10-06T10:31:31.327Z,102314.25
2022-10-06T10:34:25.939Z,102308.00
2022-10-06T10:37:07.676Z,102314.13
2022-10-06T10:39:46.075Z,102316.72
2022-10-06T10:42:31.101Z,102324.59
2022-10-06T10:45:02.155Z,102325.41
2022-10-06T10:47:36.608Z,102321.09
2022-10-06T10:50:25.815Z,102316.66
2022-10-06T10:52:57.852Z,102312.31
2022-10-06T10:55:41.706Z,102320.22
2022-10-06T10:58:19.374Z,102326.38
2022-10-06T11:00:51.887Z,102320.16
2022-10-06T11:03:18.371Z,102323.69
2022-10-06T11:06:05.095Z,102320.16
2022-10-06T11:08:55.939Z,102318.34
2022-10-06T11:11:58.896Z,102321.06
2022-10-06T11:14:44.090Z,102321.13
2022-10-06T11:17:33.398Z,102316.75
2022-10-06T11:20:33.923Z,102328.16
2022-10-06T11:23:18.735Z,102325.31
2022-10-06T11:25:53.817Z,102326.09
2022-10-06T11:28:49.991Z,102325.25
2022-10-06T11:31:48.155Z,102320.03
2022-10-06T11:34:14.586Z,102315.66
2022-10-06T11:36:53.110Z,102311.19
2022-10-06T11:39:43.891Z,102317.22
2022-10-06T11:42:25.000Z,102317.19
2022-10-06T11:45:00.240Z,102317.22
2022-10-06T11:47:51.403Z,102322.50
2022-10-06T11:50:44.519Z,102326.06
2022-10-06T11:53:32.656Z,102324.22
2022-10-06T11:56:17.433Z,102323.34
2022-10-06T11:58:56.061Z,102312.78
2022-10-06T12:01:32.312Z,102320.69
2022-10-06T12:04:02.068Z,102317.22
2022-10-06T12:06:46.843Z,102310.13
2022-10-06T12:09:30.929Z,102306.53
2022-10-06T12:12:06.984Z,102310.81
2022-10-06T12:18:09.831Z,102302.94
2022-10-06T12:21:13.914Z,102300.31
2022-10-06T12:23:58.948Z,102291.56
2022-10-06T12:26:39.624Z,102296.69
2022-10-06T12:29:34.432Z,102291.53
2022-10-06T12:32:03.831Z,102287.94
2022-10-06T12:34:39.342Z,102290.63
2022-10-06T12:37:20.986Z,102287.09
2022-10-06T12:39:47.451Z,102291.41
2022-10-06T12:42:25.744Z,102289.50
2022-10-06T12:44:53.369Z,102283.34
2022-10-06T12:47:34.655Z,102280.41
2022-10-06T12:50:06.171Z,102283.78
2022-10-06T12:52:54.166Z,102284.53
2022-10-06T12:55:43.704Z,102288.66
2022-10-06T12:58:18.879Z,102274.25
2022-10-06T13:00:46.468Z,102275.03
2022-10-06T13:03:24.335Z,102273.09
2022-10-06T13:06:00.880Z,102266.88
2022-10-06T13:08:30.396Z,102267.78
2022-10-06T13:11:15.665Z,102272.28
2022-10-06T13:13:52.405Z,102260.94
2022-10-06T13:16:23.322Z,102268.91
2022-10-06T13:18:55.031Z,102265.56
2022-10-06T13:21:21.510Z,102264.72
2022-10-06T13:23:48.724Z,102260.56
2022-10-06T13:26:32.103Z,102263.44
2022-10-06T13:29:00.106Z,102267.00
2022-10-06T13:31:32.182Z,102268.69
2022-10-06T13:34:02.511Z,102258.28
2022-10-06T13:36:31.587Z,102269.69
2022-10-06T13:38:58.284Z,102275.84
2022-10-06T13:41:34.929Z,102270.63
2022-10-06T13:44:01.298Z,102273.22
2022-10-06T13:46:31.593Z,102277.69
2022-10-06T13:49:03.439Z,102265.31
2022-10-06T13:51:32.510Z,102265.34
2022-10-06T13:54:01.243Z,102268.88
2022-10-06T13:56:35.631Z,102266.28
2022-10-06T13:59:34.084Z,102271.38
2022-10-06T14:02:20.331Z,102267.03
2022-10-06T14:05:26.854Z,102266.28
2022-10-06T14:08:00.168Z,102268.94
2022-10-06T14:10:32.527Z,102267.22
2022-10-06T14:13:01.324Z,102262.97
2022-10-06T14:15:45.051Z,102259.34
2022-10-06T14:18:42.773Z,102261.94
2022-10-06T14:21:31.194Z,102268.91
2022-10-06T14:23:59.218Z,102260.13
2022-10-06T14:26:29.725Z,102258.38
2022-10-06T14:28:57.005Z,102272.38
2022-10-06T14:31:25.566Z,102257.44
2022-10-06T14:33:53.845Z,102258.34
2022-10-06T14:36:29.142Z,102261.78
2022-10-06T14:38:57.142Z,102261.81
2022-10-06T14:41:27.634Z,102257.47
2022-10-06T14:43:56.085Z,102260.13
2022-10-06T14:46:24.743Z,102264.56
2022-10-06T14:48:51.968Z,102255.63
2022-10-06T14:51:19.669Z,102271.59
2022-10-06T14:53:57.794Z,102268.94
2022-10-06T14:56:27.599Z,102263.00
2022-10-06T14:58:54.037Z,102256.94
2022-10-06T15:01:24.498Z,102257.81
2022-10-06T15:03:52.629Z,102263.78
2022-10-06T15:06:37.737Z,102256.72
2022-10-06T15:09:04.960Z,102265.53
2022-10-06T15:11:31.843Z,102262.13
2022-10-06T15:13:59.157Z,102261.38
2022-10-06T15:16:28.032Z,102257.00
2022-10-06T15:18:54.725Z,102256.06
2022-10-06T15:21:23.777Z,102247.31
2022-10-06T15:23:57.641Z,102259.69
2022-10-06T15:26:42.766Z,102254.38
2022-10-06T15:29:09.664Z,102254.38
2022-10-06T15:31:44.478Z,102245.56
2022-10-06T15:34:13.119Z,102246.47
2022-10-06T15:36:41.869Z,102240.44
2022-10-06T15:39:10.389Z,102244.84
2022-10-06T15:41:38.523Z,102232.69
2022-10-06T15:44:06.206Z,102241.50
2022-10-06T15:46:35.195Z,102239.75
2022-10-06T15:49:19.935Z,102237.09
2022-10-06T15:51:49.130Z,102242.41
2022-10-06T15:54:27.037Z,102237.97
2022-10-06T15:56:58.485Z,102230.00
2022-10-06T15:59:26.601Z,102234.47
2022-10-06T16:02:16.097Z,102235.31
2022-10-06T16:04:43.413Z,102229.97
2022-10-06T16:07:11.235Z,102241.56
2022-10-06T16:09:43.068Z,102242.50
2022-10-06T16:12:12.014Z,102236.34
2022-10-06T16:14:38.523Z,102238.16
2022-10-06T16:17:06.326Z,102237.34
2022-10-06T16:19:36.653Z,102234.66
2022-10-06T16:22:04.635Z,102232.06
2022-10-06T16:24:31.289Z,102232.16
2022-10-06T16:26:59.753Z,102230.47
2022-10-06T16:29:27.143Z,102237.56
2022-10-06T16:31:53.798Z,102220.09
2022-10-06T16:34:20.491Z,102235.97
2022-10-06T16:36:47.019Z,102233.38
2022-10-06T16:39:16.171Z,102237.78
2022-10-06T16:41:43.275Z,102238.66
2022-10-06T16:44:10.094Z,102241.38
2022-10-06T16:46:36.870Z,102240.47
2022-10-06T16:49:04.402Z,102248.44
2022-10-06T16:51:33.615Z,102248.47
2022-10-06T16:54:02.929Z,102256.38
2022-10-06T16:56:35.318Z,102247.66
2022-10-06T16:59:22.486Z,102249.44
2022-10-06T17:01:50.141Z,102248.59
2022-10-06T17:04:19.267Z,102260.03
2022-10-06T17:06:46.829Z,102260.00
2022-10-06T17:09:16.298Z,102257.44
2022-10-06T17:11:46.704Z,102255.69
2022-10-06T17:14:13.368Z,102257.44
2022-10-06T17:16:42.281Z,102254.88
2022-10-06T17:19:11.711Z,102261.03
2022-10-06T17:21:48.054Z,102257.53
2022-10-06T17:24:20.192Z,102254.06
2022-10-06T17:26:48.455Z,102254.06
2022-10-06T17:29:21.029Z,102261.09
2022-10-06T17:31:48.963Z,102259.34
2022-10-06T17:34:20.807Z,102255.84
2022-10-06T17:36:50.980Z,102254.09
2022-10-06T17:39:20.789Z,102259.34
2022-10-06T17:41:48.854Z,102253.25
2022-10-06T17:44:22.801Z,102253.25
2022-10-06T17:46:51.997Z,102251.50
2022-10-06T17:49:20.642Z,102250.63
2022-10-06T17:51:47.936Z,102262.91
2022-10-06T17:54:16.990Z,102254.16
2022-10-06T17:56:44.615Z,102248.91
2022-10-06T17:59:17.994Z,102255.03
2022-10-06T18:01:45.308Z,102260.28
2022-10-06T18:04:16.026Z,102252.41
2022-10-06T18:06:44.078Z,102261.13
2022-10-06T18:09:11.121Z,102248.88
2022-10-06T18:11:38.864Z,102240.13
2022-10-06T18:14:12.431Z,102248.00
2022-10-06T18:16:50.867Z,102240.94
2022-10-06T18:19:25.760Z,102242.69
2022-10-06T18:21:54.397Z,102247.03
2022-10-06T18:24:23.240Z,102247.91
2022-10-06T18:26:51.048Z,102237.41
2022-10-06T18:29:20.069Z,102253.13
2022-10-06T18:31:49.441Z,102251.41
2022-10-06T18:36:10.558Z,102251.41
2022-10-06T18:37:04.501Z,102246.16
2022-10-06T18:39:31.968Z,102246.16
2022-10-06T18:42:02.399Z,102247.91
2022-10-06T18:44:48.062Z,102246.16
2022-10-06T18:47:32.620Z,102251.41
2022-10-06T18:49:59.026Z,102257.50
2022-10-06T18:52:25.428Z,102254.00
2022-10-06T18:54:51.892Z,102256.63
2022-10-06T18:57:18.361Z,102252.22
2022-10-06T18:59:45.092Z,102243.47
2022-10-06T19:02:11.909Z,102255.69
2022-10-06T19:04:41.251Z,102260.06
2022-10-06T19:07:08.410Z,102251.31
2022-10-06T19:09:34.823Z,102252.97
2022-10-06T19:12:01.849Z,102258.25
2022-10-06T19:14:35.744Z,102258.22
2022-10-06T19:17:05.788Z,102256.47
2022-10-06T19:19:32.784Z,102259.09
2022-10-06T19:22:00.882Z,102264.28
2022-10-06T19:24:39.146Z,102257.25
2022-10-06T19:27:11.203Z,102262.50
2022-10-06T19:29:41.301Z,102262.44
2022-10-06T19:32:08.566Z,102265.88
2022-10-06T19:34:37.288Z,102263.25
2022-10-06T19:37:04.823Z,102259.66
2022-10-06T19:39:35.391Z,102258.84
2022-10-06T19:42:21.479Z,102263.16
2022-10-06T19:44:47.996Z,102255.28
2022-10-06T19:47:15.315Z,102257.78
2022-10-06T19:49:42.745Z,102261.28
2022-10-06T19:52:11.401Z,102263.78
2022-10-06T19:54:39.390Z,102265.63
2022-10-06T19:57:06.971Z,102261.31
2022-10-06T19:59:33.394Z,102258.66
2022-10-06T20:02:03.116Z,102256.03
2022-10-06T20:04:29.604Z,102262.97
2022-10-06T20:06:56.252Z,102262.84
2022-10-06T20:09:23.233Z,102257.63
2022-10-06T20:11:50.821Z,102265.41
2022-10-06T20:14:22.806Z,102261.91
2022-10-06T20:16:51.487Z,102263.56
2022-10-06T20:19:19.239Z,102260.06
2022-10-06T20:21:47.851Z,102268.81
2022-10-06T20:24:22.468Z,102266.16
2022-10-06T20:26:50.385Z,102263.53
2022-10-06T20:29:20.223Z,102257.38
2022-10-06T20:31:52.804Z,102266.13
2022-10-06T20:34:24.630Z,102260.06
2022-10-06T20:36:55.593Z,102265.22
2022-10-06T20:39:42.166Z,102262.53
2022-10-06T20:42:14.977Z,102269.50
2022-10-06T20:44:42.472Z,102262.56
2022-10-06T20:47:10.350Z,102262.44
2022-10-06T20:49:37.550Z,102255.47
2022-10-06T20:52:04.989Z,102266.72
2022-10-06T20:54:34.871Z,102263.25
2022-10-06T20:57:03.664Z,102268.47
2022-10-06T20:59:31.005Z,102258.00
2022-10-06T21:01:59.842Z,102255.31
2022-10-06T21:04:29.964Z,102255.13
2022-10-06T21:06:57.163Z,102257.91
2022-10-06T21:09:24.462Z,102254.31
2022-10-06T21:11:51.683Z,102257.72
2022-10-06T21:14:19.075Z,102258.47
2022-10-06T21:16:47.736Z,102248.94
2022-10-06T21:19:16.955Z,102250.72
2022-10-06T21:21:45.967Z,102249.78
2022-10-06T21:24:12.832Z,102240.31
2022-10-06T21:26:40.469Z,102239.41
2022-10-06T21:29:07.254Z,102242.03
2022-10-06T21:31:33.675Z,102235.13
2022-10-06T21:34:01.284Z,102241.25
2022-10-06T21:36:29.112Z,102244.63
2022-10-06T21:38:57.094Z,102232.25
2022-10-06T21:41:30.040Z,102230.41
2022-10-06T21:43:57.455Z,102233.88
2022-10-06T21:46:28.710Z,102228.75
2022-10-06T21:48:57.381Z,102227.75
2022-10-06T21:51:24.886Z,102230.31
2022-10-06T21:53:52.901Z,102225.06
2022-10-06T21:56:21.109Z,102226.03
2022-10-06T21:58:52.716Z,102216.44
2022-10-06T22:01:21.286Z,102215.59
2022-10-06T22:03:48.551Z,102222.53
2022-10-06T22:06:19.103Z,102214.63
2022-10-06T22:08:46.514Z,102217.31
2022-10-06T22:11:22.370Z,102215.56
2022-10-06T22:13:51.186Z,102208.44
2022-10-06T22:16:19.790Z,102210.06
2022-10-06T22:18:47.302Z,102203.97
2022-10-06T22:21:25.928Z,102205.81
2022-10-06T22:24:00.343Z,102200.44
2022-10-06T22:26:28.368Z,102203.84
2022-10-06T22:28:56.151Z,102194.25
2022-10-06T22:31:26.103Z,102191.63
2022-10-06T22:33:58.181Z,102195.94
2022-10-06T22:36:25.734Z,102188.91
2022-10-06T22:38:52.681Z,102185.44
2022-10-06T22:41:19.414Z,102188.03
2022-10-06T22:43:45.962Z,102187.06
2022-10-06T22:46:12.976Z,102181.00
2022-10-06T22:48:39.942Z,102182.84
2022-10-06T22:51:07.047Z,102175.00
2022-10-06T22:53:33.913Z,102180.22
2022-10-06T22:56:01.649Z,102173.13
2022-10-06T22:58:28.595Z,102167.81
2022-10-06T23:00:55.641Z,102171.28
2022-10-06T23:03:22.912Z,102167.69
2022-10-06T23:05:57.096Z,102158.03
2022-10-06T23:08:23.792Z,102154.66
2022-10-06T23:10:51.057Z,102155.50
2022-10-06T23:13:17.982Z,102158.81
2022-10-06T23:15:44.415Z,102150.13
2022-10-06T23:18:10.942Z,102158.72
2022-10-06T23:20:38.080Z,102149.16
2022-10-06T23:23:04.678Z,102140.53
2022-10-06T23:25:31.150Z,102150.88
2022-10-06T23:27:57.571Z,102142.22
2022-10-06T23:30:24.014Z,102142.06
2022-10-06T23:32:50.407Z,102141.28
2022-10-06T23:35:16.899Z,102130.78
2022-10-06T23:37:43.536Z,102129.91
2022-10-06T23:40:10.621Z,102132.59
2022-10-06T23:42:37.015Z,102135.09
2022-10-06T23:45:03.598Z,102135.94
2022-10-06T23:47:29.979Z,102126.38
2022-10-06T23:49:56.389Z,102126.25
2022-10-06T23:52:22.760Z,102129.00
2022-10-06T23:54:49.518Z,102125.41
2022-10-06T23:57:15.965Z,102121.84
2022-10-06T23:59:42.335Z,102114.06
